Terminal Aerodrome Forecast
Issued by NWS

Home | Current Version | Previous Version | Text Only | Print | Product List | Glossary On
Versions: 1 2 3 4 5 6 7 8 9 10 11 12 13 14
000
FTUS43 KOAX 021720
TAFBFF
TAF
KBFF 021720Z 0218/0318 32012G20KT P6SM SCT080
     FM022200 03009KT P6SM VCTS BKN080CB
     FM022300 VRB15G30KT 5SM -TSRA SCT020 BKN050CB
     FM030300 07006KT P6SM OVC080
     FM031200 27008KT P6SM SCT080=

USA.gov is the U.S. government's official web portal to all federal, state and local government web resources and services.